Time,TemperatureF,DewpointF,PressureIn,WindDirection,WindDirectionDegrees,WindSpeedMPH,WindSpeedGustMPH,Humidity,HourlyPrecipIn,Conditions,Clouds,dailyrainin,SoftwareType,DateUTC
2016-09-30 00:03:00,64.5,63.0,30.22,East,82,20.0,26.0,96,0.00,,,0.00,weatherlink.com 1.10,2016-09-30 04:03:00,
2016-09-30 00:18:00,65.3,63.0,30.21,East,91,21.0,25.0,92,0.00,,,0.00,weatherlink.com 1.10,2016-09-30 04:18:00,
2016-09-30 00:33:00,63.4,61.0,30.21,East,85,19.0,28.0,93,0.00,,,0.00,weatherlink.com 1.10,2016-09-30 04:33:00,
2016-09-30 00:48:00,-999.9,-99.9,30.20,North,-9999,-999.9,-999.0,-999,0.00,,,0.00,weatherlink.com 1.10,2016-09-30 04:48:00,
2016-09-30 01:04:00,-999.9,-99.9,30.20,North,-9999,-999.9,-999.0,-999,0.00,,,0.00,weatherlink.com 1.10,2016-09-30 05:04:00,
2016-09-30 01:19:00,-999.9,-99.9,30.21,North,-9999,-999.9,-999.0,-999,0.00,,,0.00,weatherlink.com 1.10,2016-09-30 05:19:00,
2016-09-30 01:34:00,-999.9,-99.9,30.21,North,-9999,-999.9,-999.0,-999,0.00,,,0.00,weatherlink.com 1.10,2016-09-30 05:34:00,
2016-09-30 01:49:00,-999.9,-99.9,30.21,North,-9999,-999.9,-999.0,-999,0.00,,,0.00,weatherlink.com 1.10,2016-09-30 05:49:00,
2016-09-30 02:04:00,-999.9,-99.9,30.20,North,-9999,-999.9,-999.0,-999,0.00,,,0.00,weatherlink.com 1.10,2016-09-30 06:04:00,
2016-09-30 02:19:00,-999.9,-99.9,30.21,North,-9999,-999.9,-999.0,-999,0.00,,,0.00,weatherlink.com 1.10,2016-09-30 06:19:00,
2016-09-30 02:34:00,-999.9,-99.9,30.18,North,-9999,-999.9,-999.0,-999,0.00,,,0.00,weatherlink.com 1.10,2016-09-30 06:34:00,
2016-09-30 02:49:00,-999.9,-99.9,30.18,North,-9999,-999.9,-999.0,-999,0.00,,,0.00,weatherlink.com 1.10,2016-09-30 06:49:00,
2016-09-30 03:04:00,-999.9,-99.9,30.19,North,-9999,-999.9,-999.0,-999,0.00,,,0.00,weatherlink.com 1.10,2016-09-30 07:04:00,
2016-09-30 03:19:00,-999.9,-99.9,30.19,North,-9999,-999.9,-999.0,-999,0.00,,,0.00,weatherlink.com 1.10,2016-09-30 07:19:00,
2016-09-30 03:39:00,65.2,61.0,30.19,NE,35,0.0,0.0,86,0.00,,,0.00,weatherlink.com 1.10,2016-09-30 07:39:00,
2016-09-30 03:49:00,64.2,61.0,30.19,NNE,18,0.0,0.0,90,0.52,,,0.52,weatherlink.com 1.10,2016-09-30 07:49:00,
2016-09-30 04:04:00,63.9,61.0,30.19,NNE,14,0.0,0.0,89,0.53,,,0.53,weatherlink.com 1.10,2016-09-30 08:04:00,
2016-09-30 04:34:00,63.5,61.0,30.19,NNE,23,0.0,0.0,90,0.55,,,0.55,weatherlink.com 1.10,2016-09-30 08:34:00,
2016-09-30 04:49:00,63.7,61.0,30.19,North,9,0.0,0.0,90,0.03,,,0.55,weatherlink.com 1.10,2016-09-30 08:49:00,
2016-09-30 05:04:00,63.7,61.0,30.21,NNE,23,0.0,0.0,89,0.02,,,0.55,weatherlink.com 1.10,2016-09-30 09:04:00,
2016-09-30 05:20:00,63.9,61.0,30.22,NNE,15,0.0,0.0,90,0.00,,,0.55,weatherlink.com 1.10,2016-09-30 09:20:00,
2016-09-30 05:34:00,64.0,61.0,30.19,NE,38,0.0,0.0,91,0.00,,,0.55,weatherlink.com 1.10,2016-09-30 09:34:00,
2016-09-30 05:49:00,64.2,61.0,30.18,NNE,23,0.0,0.0,90,0.00,,,0.55,weatherlink.com 1.10,2016-09-30 09:49:00,
2016-09-30 06:05:00,64.5,61.0,30.19,North,360,0.0,0.0,89,0.00,,,0.55,weatherlink.com 1.10,2016-09-30 10:05:00,
2016-09-30 06:19:00,64.7,62.0,30.18,NE,41,0.0,0.0,89,0.00,,,0.55,weatherlink.com 1.10,2016-09-30 10:19:00,
2016-09-30 06:34:00,64.5,61.0,30.19,North,9,0.0,0.0,89,0.00,,,0.55,weatherlink.com 1.10,2016-09-30 10:34:00,
2016-09-30 06:49:00,64.5,61.0,30.20,NNE,33,0.0,0.0,89,0.00,,,0.55,weatherlink.com 1.10,2016-09-30 10:49:00,
2016-09-30 07:04:00,64.5,61.0,30.21,NNE,17,0.0,0.0,89,0.00,,,0.55,weatherlink.com 1.10,2016-09-30 11:04:00,
2016-09-30 07:20:00,64.3,61.0,30.21,NNE,17,0.0,0.0,90,0.00,,,0.55,weatherlink.com 1.10,2016-09-30 11:20:00,
2016-09-30 07:34:00,63.7,61.0,30.22,NNE,30,0.0,0.0,90,0.00,,,0.55,weatherlink.com 1.10,2016-09-30 11:34:00,
2016-09-30 08:05:00,63.4,61.0,30.65,NNE,14,0.0,0.0,92,0.00,,,0.55,weatherlink.com 1.10,2016-09-30 12:05:00,
2016-09-30 08:20:00,63.2,61.0,30.69,NNE,16,0.0,0.0,92,0.00,,,0.55,weatherlink.com 1.10,2016-09-30 12:20:00,
2016-09-30 08:35:00,63.1,61.0,30.68,North,6,0.0,0.0,93,0.00,,,0.55,weatherlink.com 1.10,2016-09-30 12:35:00,
2016-09-30 08:50:00,63.2,61.0,30.67,North,1,0.0,0.0,93,0.00,,,0.55,weatherlink.com 1.10,2016-09-30 12:50:00,
2016-09-30 09:05:00,63.2,61.0,30.66,North,1,0.0,0.0,93,0.01,,,0.56,weatherlink.com 1.10,2016-09-30 13:05:00,
2016-09-30 09:20:00,63.4,61.0,30.69,NNE,27,0.0,0.0,93,0.01,,,0.56,weatherlink.com 1.10,2016-09-30 13:20:00,
2016-09-30 09:35:00,63.7,62.0,30.70,NE,36,0.0,0.0,93,0.01,,,0.56,weatherlink.com 1.10,2016-09-30 13:35:00,
2016-09-30 09:50:00,63.9,62.0,30.68,NNE,23,0.0,0.0,93,0.02,,,0.57,weatherlink.com 1.10,2016-09-30 13:50:00,
2016-09-30 10:08:00,64.0,62.0,30.89,NNE,12,0.0,0.0,93,0.01,,,0.57,weatherlink.com 1.10,2016-09-30 14:08:00,
2016-09-30 10:20:00,64.2,62.0,30.90,NNE,32,0.0,0.0,93,0.01,,,0.57,weatherlink.com 1.10,2016-09-30 14:20:00,
2016-09-30 10:35:00,64.5,63.0,30.67,ENE,58,0.0,0.0,93,0.01,,,0.57,weatherlink.com 1.10,2016-09-30 14:35:00,
2016-09-30 10:50:00,64.3,62.0,30.68,NNE,30,0.0,0.0,93,0.00,,,0.57,weatherlink.com 1.10,2016-09-30 14:50:00,
2016-09-30 11:08:00,64.5,63.0,30.69,NNE,15,0.0,0.0,93,0.00,,,0.57,weatherlink.com 1.10,2016-09-30 15:08:00,
2016-09-30 11:20:00,64.3,62.0,30.73,NNE,24,0.0,0.0,93,0.00,,,0.57,weatherlink.com 1.10,2016-09-30 15:20:00,
2016-09-30 11:38:00,64.8,63.0,30.72,NNE,28,0.0,0.0,93,0.00,,,0.57,weatherlink.com 1.10,2016-09-30 15:38:00,
2016-09-30 11:50:00,64.8,63.0,30.71,NE,42,0.0,0.0,92,0.00,,,0.57,weatherlink.com 1.10,2016-09-30 15:50:00,
2016-09-30 12:05:00,65.0,63.0,30.68,NNE,21,0.0,0.0,92,0.00,,,0.57,weatherlink.com 1.10,2016-09-30 16:05:00,
2016-09-30 12:20:00,65.0,63.0,30.70,NNE,14,0.0,0.0,92,0.00,,,0.57,weatherlink.com 1.10,2016-09-30 16:20:00,
2016-09-30 12:35:00,65.0,63.0,30.69,North,360,0.0,0.0,92,0.00,,,0.57,weatherlink.com 1.10,2016-09-30 16:35:00,
2016-09-30 12:50:00,65.0,63.0,30.68,North,7,0.0,0.0,92,0.00,,,0.57,weatherlink.com 1.10,2016-09-30 16:50:00,
2016-09-30 13:05:00,65.5,64.0,30.68,NNE,28,0.0,0.0,93,0.00,,,0.57,weatherlink.com 1.10,2016-09-30 17:05:00,
2016-09-30 13:20:00,65.6,63.0,30.66,NE,34,0.0,-999.0,92,-99.99,,,0.57,weatherlink.com 1.10,2016-09-30 17:20:00,
2016-09-30 13:35:00,66.0,64.0,30.69,ENE,57,0.0,0.0,92,0.00,,,0.57,weatherlink.com 1.10,2016-09-30 17:35:00,
2016-09-30 13:50:00,66.1,64.0,30.66,NE,35,0.0,0.0,92,0.00,,,0.57,weatherlink.com 1.10,2016-09-30 17:50:00,
2016-09-30 14:05:00,66.3,63.0,30.68,ENE,58,0.0,0.0,90,0.00,,,0.57,weatherlink.com 1.10,2016-09-30 18:05:00,
2016-09-30 14:20:00,66.4,64.0,30.65,ENE,58,0.0,0.0,90,0.00,,,0.57,weatherlink.com 1.10,2016-09-30 18:20:00,
2016-09-30 14:35:00,66.4,63.0,30.70,ENE,58,0.0,0.0,89,0.00,,,0.57,weatherlink.com 1.10,2016-09-30 18:35:00,
2016-09-30 14:50:00,66.9,63.0,30.69,NE,46,0.0,0.0,88,0.00,,,0.57,weatherlink.com 1.10,2016-09-30 18:50:00,
2016-09-30 15:05:00,67.1,63.0,30.69,NE,53,0.0,0.0,87,0.01,,,0.58,weatherlink.com 1.10,2016-09-30 19:05:00,
2016-09-30 15:20:00,67.3,63.0,30.67,ENE,60,0.0,0.0,87,0.01,,,0.58,weatherlink.com 1.10,2016-09-30 19:20:00,
2016-09-30 15:35:00,67.3,63.0,30.64,ENE,59,0.0,0.0,87,0.01,,,0.58,weatherlink.com 1.10,2016-09-30 19:35:00,
2016-09-30 15:50:00,67.3,63.0,30.66,NE,55,0.0,0.0,86,0.01,,,0.58,weatherlink.com 1.10,2016-09-30 19:50:00,
2016-09-30 16:05:00,67.8,63.0,30.65,ENE,59,0.0,0.0,85,0.00,,,0.58,weatherlink.com 1.10,2016-09-30 20:05:00,
2016-09-30 16:20:00,67.6,63.0,30.63,ENE,58,0.0,0.0,86,0.00,,,0.58,weatherlink.com 1.10,2016-09-30 20:20:00,
2016-09-30 16:35:00,67.4,63.0,30.66,NE,51,0.0,0.0,85,0.00,,,0.58,weatherlink.com 1.10,2016-09-30 20:35:00,
2016-09-30 16:50:00,67.6,63.0,30.67,East,85,0.0,0.0,85,0.00,,,0.58,weatherlink.com 1.10,2016-09-30 20:50:00,
2016-09-30 17:21:00,67.4,63.0,30.69,NE,56,0.0,0.0,85,0.00,,,0.58,weatherlink.com 1.10,2016-09-30 21:21:00,
2016-09-30 17:36:00,67.3,63.0,30.70,ENE,63,0.0,0.0,85,0.00,,,0.58,weatherlink.com 1.10,2016-09-30 21:36:00,